sensor_id;sensor_type;location;lat;lon;timestamp;temperature;humidity
2721;DHT22;1368;49.484;11.112;2023-04-01T00:01:43;9.70;99.90
2721;DHT22;1368;49.484;11.112;2023-04-01T00:04:08;9.80;99.90
2721;DHT22;1368;49.484;11.112;2023-04-01T00:06:34;9.80;99.90
2721;DHT22;1368;49.484;11.112;2023-04-01T00:09:00;9.90;99.90
2721;DHT22;1368;49.484;11.112;2023-04-01T00:11:25;10.10;99.90
2721;DHT22;1368;49.484;11.112;2023-04-01T00:13:52;10.10;99.90
2721;DHT22;1368;49.484;11.112;2023-04-01T00:16:18;10.60;99.90
2721;DHT22;1368;49.484;11.112;2023-04-01T00:18:43;10.20;99.90
2721;DHT22;1368;49.484;11.112;2023-04-01T00:21:09;10.30;99.90
2721;DHT22;1368;49.484;11.112;2023-04-01T00:23:35;10.30;99.90
2721;DHT22;1368;49.484;11.112;2023-04-01T00:26:02;10.10;99.90
2721;DHT22;1368;49.484;11.112;2023-04-01T00:28:28;10.20;99.90
2721;DHT22;1368;49.484;11.112;2023-04-01T00:30:53;10.20;99.90
2721;DHT22;1368;49.484;11.112;2023-04-01T00:33:19;10.20;99.90
2721;DHT22;1368;49.484;11.112;2023-04-01T00:35:45;10.30;99.90
2721;DHT22;1368;49.484;11.112;2023-04-01T00:38:11;10.30;99.90
2721;DHT22;1368;49.484;11.112;2023-04-01T00:40:40;10.30;99.90
2721;DHT22;1368;49.484;11.112;2023-04-01T00:45:48;10.40;99.90
2721;DHT22;1368;49.484;11.112;2023-04-01T00:48:26;10.50;99.90
2721;DHT22;1368;49.484;11.112;2023-04-01T00:51:07;10.60;99.90
2721;DHT22;1368;49.484;11.112;2023-04-01T00:53:38;10.60;99.90
2721;DHT22;1368;49.484;11.112;2023-04-01T00:56:10;10.60;99.90
2721;DHT22;1368;49.484;11.112;2023-04-01T00:58:41;10.50;99.90
2721;DHT22;1368;49.484;11.112;2023-04-01T01:01:08;10.40;99.90
2721;DHT22;1368;49.484;11.112;2023-04-01T01:03:34;10.30;99.90
2721;DHT22;1368;49.484;11.112;2023-04-01T01:11:52;10.40;99.90
2721;DHT22;1368;49.484;11.112;2023-04-01T01:14:24;10.40;99.90
2721;DHT22;1368;49.484;11.112;2023-04-01T01:17:06;10.60;99.90
2721;DHT22;1368;49.484;11.112;2023-04-01T01:20:03;10.50;99.90
2721;DHT22;1368;49.484;11.112;2023-04-01T01:31:12;10.90;99.90
2721;DHT22;1368;49.484;11.112;2023-04-01T01:33:54;10.80;99.90
2721;DHT22;1368;49.484;11.112;2023-04-01T01:36:28;10.70;99.90
2721;DHT22;1368;49.484;11.112;2023-04-01T01:38:57;10.60;99.90
2721;DHT22;1368;49.484;11.112;2023-04-01T01:41:25;10.40;99.90
2721;DHT22;1368;49.484;11.112;2023-04-01T01:43:53;10.60;99.90
2721;DHT22;1368;49.484;11.112;2023-04-01T01:46:23;10.70;99.90
2721;DHT22;1368;49.484;11.112;2023-04-01T01:48:50;10.80;99.90
2721;DHT22;1368;49.484;11.112;2023-04-01T01:51:18;10.50;99.90
2721;DHT22;1368;49.484;11.112;2023-04-01T01:53:44;10.50;99.90
2721;DHT22;1368;49.484;11.112;2023-04-01T01:56:10;10.40;99.90
2721;DHT22;1368;49.484;11.112;2023-04-01T01:58:47;10.50;99.90
2721;DHT22;1368;49.484;11.112;2023-04-01T02:01:20;10.70;99.90
2721;DHT22;1368;49.484;11.112;2023-04-01T02:03:47;10.70;99.90
2721;DHT22;1368;49.484;11.112;2023-04-01T02:06:17;10.60;99.90
2721;DHT22;1368;49.484;11.112;2023-04-01T02:08:56;10.50;99.90
2721;DHT22;1368;49.484;11.112;2023-04-01T02:11:34;10.50;99.90
2721;DHT22;1368;49.484;11.112;2023-04-01T02:14:14;10.50;99.90
2721;DHT22;1368;49.484;11.112;2023-04-01T02:19:12;10.50;99.90
2721;DHT22;1368;49.484;11.112;2023-04-01T02:21:39;10.50;99.90
2721;DHT22;1368;49.484;11.112;2023-04-01T02:24:10;10.60;99.90
2721;DHT22;1368;49.484;11.112;2023-04-01T02:26:37;10.60;99.90
2721;DHT22;1368;49.484;11.112;2023-04-01T02:29:05;10.60;99.90
2721;DHT22;1368;49.484;11.112;2023-04-01T02:31:33;10.60;99.90
2721;DHT22;1368;49.484;11.112;2023-04-01T02:34:00;10.70;99.90
2721;DHT22;1368;49.484;11.112;2023-04-01T02:36:25;10.70;99.90
2721;DHT22;1368;49.484;11.112;2023-04-01T02:38:52;10.80;99.90
2721;DHT22;1368;49.484;11.112;2023-04-01T02:41:19;10.70;99.90
2721;DHT22;1368;49.484;11.112;2023-04-01T02:43:46;10.70;99.90
2721;DHT22;1368;49.484;11.112;2023-04-01T02:46:11;10.80;99.90
2721;DHT22;1368;49.484;11.112;2023-04-01T02:48:37;10.70;99.90
2721;DHT22;1368;49.484;11.112;2023-04-01T02:51:02;10.80;99.90
2721;DHT22;1368;49.484;11.112;2023-04-01T02:53:29;10.80;99.90
2721;DHT22;1368;49.484;11.112;2023-04-01T02:55:54;11.00;99.90
2721;DHT22;1368;49.484;11.112;2023-04-01T02:58:21;11.00;99.90
2721;DHT22;1368;49.484;11.112;2023-04-01T03:00:47;11.00;99.90
2721;DHT22;1368;49.484;11.112;2023-04-01T03:03:12;10.90;99.90
2721;DHT22;1368;49.484;11.112;2023-04-01T03:05:39;10.90;99.90
2721;DHT22;1368;49.484;11.112;2023-04-01T03:08:04;11.00;99.90
2721;DHT22;1368;49.484;11.112;2023-04-01T03:10:31;11.00;99.90
2721;DHT22;1368;49.484;11.112;2023-04-01T03:12:57;10.90;99.90
2721;DHT22;1368;49.484;11.112;2023-04-01T03:15:22;10.80;99.90
2721;DHT22;1368;49.484;11.112;2023-04-01T03:17:48;10.80;99.90
2721;DHT22;1368;49.484;11.112;2023-04-01T03:20:14;11.00;99.90
2721;DHT22;1368;49.484;11.112;2023-04-01T03:22:40;11.20;99.90
2721;DHT22;1368;49.484;11.112;2023-04-01T03:25:06;11.20;99.90
2721;DHT22;1368;49.484;11.112;2023-04-01T03:27:33;11.10;99.90
2721;DHT22;1368;49.484;11.112;2023-04-01T03:30:00;11.10;99.90
2721;DHT22;1368;49.484;11.112;2023-04-01T03:32:25;11.20;99.90
2721;DHT22;1368;49.484;11.112;2023-04-01T03:34:52;11.70;99.90
2721;DHT22;1368;49.484;11.112;2023-04-01T03:37:18;11.30;99.90
2721;DHT22;1368;49.484;11.112;2023-04-01T03:39:43;11.20;99.90
2721;DHT22;1368;49.484;11.112;2023-04-01T03:42:09;11.20;99.90
2721;DHT22;1368;49.484;11.112;2023-04-01T03:44:34;11.00;99.90
2721;DHT22;1368;49.484;11.112;2023-04-01T03:47:00;11.00;99.90
2721;DHT22;1368;49.484;11.112;2023-04-01T03:49:26;11.00;99.90
2721;DHT22;1368;49.484;11.112;2023-04-01T03:51:51;11.00;99.90
2721;DHT22;1368;49.484;11.112;2023-04-01T03:54:17;11.00;99.90
2721;DHT22;1368;49.484;11.112;2023-04-01T03:56:45;11.00;99.90
2721;DHT22;1368;49.484;11.112;2023-04-01T03:59:11;11.20;99.90
2721;DHT22;1368;49.484;11.112;2023-04-01T04:01:37;11.30;99.90
2721;DHT22;1368;49.484;11.112;2023-04-01T04:04:02;11.10;99.90
2721;DHT22;1368;49.484;11.112;2023-04-01T04:06:28;11.10;99.90
2721;DHT22;1368;49.484;11.112;2023-04-01T04:08:54;11.00;99.90
2721;DHT22;1368;49.484;11.112;2023-04-01T04:11:21;11.00;99.90
2721;DHT22;1368;49.484;11.112;2023-04-01T04:13:47;11.00;99.90
2721;DHT22;1368;49.484;11.112;2023-04-01T04:16:17;11.00;99.90
2721;DHT22;1368;49.484;11.112;2023-04-01T04:18:43;11.10;99.90
2721;DHT22;1368;49.484;11.112;2023-04-01T04:21:12;11.00;99.90
2721;DHT22;1368;49.484;11.112;2023-04-01T04:23:38;10.80;99.90
2721;DHT22;1368;49.484;11.112;2023-04-01T04:26:06;10.50;99.90
2721;DHT22;1368;49.484;11.112;2023-04-01T04:28:32;10.60;99.90
2721;DHT22;1368;49.484;11.112;2023-04-01T04:30:58;10.70;99.90
2721;DHT22;1368;49.484;11.112;2023-04-01T04:33:24;10.70;99.90
2721;DHT22;1368;49.484;11.112;2023-04-01T04:35:51;10.80;99.90
2721;DHT22;1368;49.484;11.112;2023-04-01T04:38:17;10.90;99.90
2721;DHT22;1368;49.484;11.112;2023-04-01T04:40:43;10.90;99.90
2721;DHT22;1368;49.484;11.112;2023-04-01T04:43:14;10.90;99.90
2721;DHT22;1368;49.484;11.112;2023-04-01T04:45:40;11.20;99.90
2721;DHT22;1368;49.484;11.112;2023-04-01T04:48:10;11.00;99.90
2721;DHT22;1368;49.484;11.112;2023-04-01T04:50:36;11.10;99.90
2721;DHT22;1368;49.484;11.112;2023-04-01T04:53:02;11.00;99.90
2721;DHT22;1368;49.484;11.112;2023-04-01T04:55:28;11.00;99.90
2721;DHT22;1368;49.484;11.112;2023-04-01T04:57:54;10.90;99.90
2721;DHT22;1368;49.484;11.112;2023-04-01T05:00:19;10.90;99.90
2721;DHT22;1368;49.484;11.112;2023-04-01T05:02:45;10.60;99.90
2721;DHT22;1368;49.484;11.112;2023-04-01T05:05:10;10.50;99.90
2721;DHT22;1368;49.484;11.112;2023-04-01T05:07:36;10.40;99.90
2721;DHT22;1368;49.484;11.112;2023-04-01T05:10:02;10.60;99.90
2721;DHT22;1368;49.484;11.112;2023-04-01T05:12:28;10.60;99.90
2721;DHT22;1368;49.484;11.112;2023-04-01T05:14:53;10.60;99.90
2721;DHT22;1368;49.484;11.112;2023-04-01T05:17:19;10.80;99.90
2721;DHT22;1368;49.484;11.112;2023-04-01T05:19:45;10.70;99.90
2721;DHT22;1368;49.484;11.112;2023-04-01T05:22:10;10.70;99.90
2721;DHT22;1368;49.484;11.112;2023-04-01T05:24:36;10.60;99.90
2721;DHT22;1368;49.484;11.112;2023-04-01T05:27:01;10.70;99.90
2721;DHT22;1368;49.484;11.112;2023-04-01T05:29:27;10.60;99.90
2721;DHT22;1368;49.484;11.112;2023-04-01T05:31:53;10.40;99.90
2721;DHT22;1368;49.484;11.112;2023-04-01T05:34:18;10.20;99.90
2721;DHT22;1368;49.484;11.112;2023-04-01T05:36:44;10.30;99.90
2721;DHT22;1368;49.484;11.112;2023-04-01T05:39:10;10.30;99.90
2721;DHT22;1368;49.484;11.112;2023-04-01T05:41:36;10.30;99.90
2721;DHT22;1368;49.484;11.112;2023-04-01T05:44:02;10.40;99.90
2721;DHT22;1368;49.484;11.112;2023-04-01T05:46:28;10.50;99.90
2721;DHT22;1368;49.484;11.112;2023-04-01T05:48:53;10.60;99.90
2721;DHT22;1368;49.484;11.112;2023-04-01T05:51:19;10.90;99.90
2721;DHT22;1368;49.484;11.112;2023-04-01T05:53:45;11.00;99.90
2721;DHT22;1368;49.484;11.112;2023-04-01T05:56:10;11.00;99.90
2721;DHT22;1368;49.484;11.112;2023-04-01T05:58:36;11.10;99.90
2721;DHT22;1368;49.484;11.112;2023-04-01T06:01:07;11.10;99.90
2721;DHT22;1368;49.484;11.112;2023-04-01T06:03:33;10.90;99.90
2721;DHT22;1368;49.484;11.112;2023-04-01T06:05:59;11.10;99.90
2721;DHT22;1368;49.484;11.112;2023-04-01T06:08:26;11.00;99.90
2721;DHT22;1368;49.484;11.112;2023-04-01T06:11:26;11.00;99.90
2721;DHT22;1368;49.484;11.112;2023-04-01T06:14:42;11.00;99.90
2721;DHT22;1368;49.484;11.112;2023-04-01T06:17:30;11.00;99.90
2721;DHT22;1368;49.484;11.112;2023-04-01T06:28:54;11.60;99.90
2721;DHT22;1368;49.484;11.112;2023-04-01T06:31:34;11.70;99.90
2721;DHT22;1368;49.484;11.112;2023-04-01T06:43:23;12.50;99.90
2721;DHT22;1368;49.484;11.112;2023-04-01T06:46:09;12.80;99.90
2721;DHT22;1368;49.484;11.112;2023-04-01T06:48:53;12.90;99.90
2721;DHT22;1368;49.484;11.112;2023-04-01T06:54:18;13.40;99.90
2721;DHT22;1368;49.484;11.112;2023-04-01T06:56:50;13.50;99.90
2721;DHT22;1368;49.484;11.112;2023-04-01T06:59:21;13.50;99.90
2721;DHT22;1368;49.484;11.112;2023-04-01T07:01:50;13.40;99.90
2721;DHT22;1368;49.484;11.112;2023-04-01T07:04:23;13.50;99.90
2721;DHT22;1368;49.484;11.112;2023-04-01T07:06:54;13.40;99.90
2721;DHT22;1368;49.484;11.112;2023-04-01T07:09:25;13.30;99.90
2721;DHT22;1368;49.484;11.112;2023-04-01T07:11:55;13.30;99.90
2721;DHT22;1368;49.484;11.112;2023-04-01T07:14:30;13.50;99.90
2721;DHT22;1368;49.484;11.112;2023-04-01T07:17:05;13.40;99.90
2721;DHT22;1368;49.484;11.112;2023-04-01T07:19:45;13.40;99.90
2721;DHT22;1368;49.484;11.112;2023-04-01T07:22:38;13.60;99.90
2721;DHT22;1368;49.484;11.112;2023-04-01T07:25:27;13.30;99.90
2721;DHT22;1368;49.484;11.112;2023-04-01T07:28:02;13.50;99.90
2721;DHT22;1368;49.484;11.112;2023-04-01T07:30:46;13.50;99.90
2721;DHT22;1368;49.484;11.112;2023-04-01T07:33:19;13.60;99.90
2721;DHT22;1368;49.484;11.112;2023-04-01T07:36:09;13.60;99.90
2721;DHT22;1368;49.484;11.112;2023-04-01T07:39:03;13.50;99.90
2721;DHT22;1368;49.484;11.112;2023-04-01T07:50:13;13.70;99.90
2721;DHT22;1368;49.484;11.112;2023-04-01T08:01:05;13.30;99.90
2721;DHT22;1368;49.484;11.112;2023-04-01T08:06:14;13.70;99.90
2721;DHT22;1368;49.484;11.112;2023-04-01T08:14:13;14.10;99.90
2721;DHT22;1368;49.484;11.112;2023-04-01T08:17:04;13.70;99.90
2721;DHT22;1368;49.484;11.112;2023-04-01T08:19:46;13.80;99.90
2721;DHT22;1368;49.484;11.112;2023-04-01T08:22:41;14.00;99.90
2721;DHT22;1368;49.484;11.112;2023-04-01T08:25:16;13.90;99.90
2721;DHT22;1368;49.484;11.112;2023-04-01T08:27:51;13.50;99.90
2721;DHT22;1368;49.484;11.112;2023-04-01T08:30:25;13.50;99.90
2721;DHT22;1368;49.484;11.112;2023-04-01T08:32:58;13.60;99.90
2721;DHT22;1368;49.484;11.112;2023-04-01T08:35:39;13.80;99.90
2721;DHT22;1368;49.484;11.112;2023-04-01T08:38:15;13.90;99.90
2721;DHT22;1368;49.484;11.112;2023-04-01T08:40:58;13.70;99.90
2721;DHT22;1368;49.484;11.112;2023-04-01T08:49:10;13.40;99.90
2721;DHT22;1368;49.484;11.112;2023-04-01T08:54:49;13.60;99.90
2721;DHT22;1368;49.484;11.112;2023-04-01T08:57:45;13.40;99.90
2721;DHT22;1368;49.484;11.112;2023-04-01T09:09:09;12.80;99.90
2721;DHT22;1368;49.484;11.112;2023-04-01T09:15:13;12.90;99.90
2721;DHT22;1368;49.484;11.112;2023-04-01T09:17:56;12.90;99.90
2721;DHT22;1368;49.484;11.112;2023-04-01T09:26:42;12.90;99.90
2721;DHT22;1368;49.484;11.112;2023-04-01T09:32:07;13.00;99.90
2721;DHT22;1368;49.484;11.112;2023-04-01T09:34:51;13.30;99.90
2721;DHT22;1368;49.484;11.112;2023-04-01T09:37:19;13.50;99.90
2721;DHT22;1368;49.484;11.112;2023-04-01T09:40:16;13.80;99.90
2721;DHT22;1368;49.484;11.112;2023-04-01T09:46:02;13.40;99.90
2721;DHT22;1368;49.484;11.112;2023-04-01T09:59:22;14.00;99.90
2721;DHT22;1368;49.484;11.112;2023-04-01T10:07:44;13.00;99.90
2721;DHT22;1368;49.484;11.112;2023-04-01T10:10:32;12.60;99.90
2721;DHT22;1368;49.484;11.112;2023-04-01T10:16:06;12.50;99.90
2721;DHT22;1368;49.484;11.112;2023-04-01T10:18:52;12.50;99.90
2721;DHT22;1368;49.484;11.112;2023-04-01T10:24:15;12.40;99.90
2721;DHT22;1368;49.484;11.112;2023-04-01T10:27:41;12.30;99.90
2721;DHT22;1368;49.484;11.112;2023-04-01T10:33:27;12.00;99.90
2721;DHT22;1368;49.484;11.112;2023-04-01T10:36:26;12.30;99.90
2721;DHT22;1368;49.484;11.112;2023-04-01T10:42:20;12.70;99.90
2721;DHT22;1368;49.484;11.112;2023-04-01T10:45:00;13.00;99.90
2721;DHT22;1368;49.484;11.112;2023-04-01T10:53:39;13.20;99.90
2721;DHT22;1368;49.484;11.112;2023-04-01T11:14:03;12.00;99.90
2721;DHT22;1368;49.484;11.112;2023-04-01T11:25:11;12.20;99.90
2721;DHT22;1368;49.484;11.112;2023-04-01T11:28:06;11.90;99.90
2721;DHT22;1368;49.484;11.112;2023-04-01T11:30:59;12.00;99.90
2721;DHT22;1368;49.484;11.112;2023-04-01T11:33:44;12.10;99.90
2721;DHT22;1368;49.484;11.112;2023-04-01T11:36:42;12.10;99.90
2721;DHT22;1368;49.484;11.112;2023-04-01T11:42:16;12.20;99.90
2721;DHT22;1368;49.484;11.112;2023-04-01T11:44:58;12.20;99.90
2721;DHT22;1368;49.484;11.112;2023-04-01T11:47:57;12.20;99.90
2721;DHT22;1368;49.484;11.112;2023-04-01T12:01:51;12.00;99.90
2721;DHT22;1368;49.484;11.112;2023-04-01T12:12:46;12.50;99.90
2721;DHT22;1368;49.484;11.112;2023-04-01T12:18:31;12.10;99.90
2721;DHT22;1368;49.484;11.112;2023-04-01T12:21:38;12.10;99.90
2721;DHT22;1368;49.484;11.112;2023-04-01T12:32:44;12.50;99.90
2721;DHT22;1368;49.484;11.112;2023-04-01T12:38:08;12.40;99.90
2721;DHT22;1368;49.484;11.112;2023-04-01T12:40:56;12.60;99.90
2721;DHT22;1368;49.484;11.112;2023-04-01T12:46:23;12.70;99.90
2721;DHT22;1368;49.484;11.112;2023-04-01T12:52:10;12.70;99.90
2721;DHT22;1368;49.484;11.112;2023-04-01T12:55:03;12.40;99.90
2721;DHT22;1368;49.484;11.112;2023-04-01T13:07:11;12.60;99.90
2721;DHT22;1368;49.484;11.112;2023-04-01T13:20:43;13.30;99.90
2721;DHT22;1368;49.484;11.112;2023-04-01T13:26:19;13.30;99.90
2721;DHT22;1368;49.484;11.112;2023-04-01T13:34:28;13.10;99.90
2721;DHT22;1368;49.484;11.112;2023-04-01T13:36:59;12.90;99.90
2721;DHT22;1368;49.484;11.112;2023-04-01T13:44:48;13.30;99.90
2721;DHT22;1368;49.484;11.112;2023-04-01T13:50:34;13.20;99.90
2721;DHT22;1368;49.484;11.112;2023-04-01T13:58:49;13.60;99.90
2721;DHT22;1368;49.484;11.112;2023-04-01T14:09:49;12.60;99.90
2721;DHT22;1368;49.484;11.112;2023-04-01T14:12:26;12.20;99.90
2721;DHT22;1368;49.484;11.112;2023-04-01T14:14:58;12.10;99.90
2721;DHT22;1368;49.484;11.112;2023-04-01T14:29:18;11.60;99.90
2721;DHT22;1368;49.484;11.112;2023-04-01T14:37:29;11.60;99.90
2721;DHT22;1368;49.484;11.112;2023-04-01T14:43:10;11.60;99.90
2721;DHT22;1368;49.484;11.112;2023-04-01T14:50:49;11.50;99.90
2721;DHT22;1368;49.484;11.112;2023-04-01T14:55:53;11.60;99.90
2721;DHT22;1368;49.484;11.112;2023-04-01T14:58:21;11.50;99.90
2721;DHT22;1368;49.484;11.112;2023-04-01T15:03:26;11.40;99.90
2721;DHT22;1368;49.484;11.112;2023-04-01T15:11:47;11.70;99.90
2721;DHT22;1368;49.484;11.112;2023-04-01T15:31:19;11.60;99.90
2721;DHT22;1368;49.484;11.112;2023-04-01T15:34:05;11.60;99.90
2721;DHT22;1368;49.484;11.112;2023-04-01T15:44:51;11.90;99.90
2721;DHT22;1368;49.484;11.112;2023-04-01T15:53:18;11.80;99.90
2721;DHT22;1368;49.484;11.112;2023-04-01T15:58:56;11.60;99.90
2721;DHT22;1368;49.484;11.112;2023-04-01T16:02:18;11.40;99.90
2721;DHT22;1368;49.484;11.112;2023-04-01T16:18:51;10.90;99.90
2721;DHT22;1368;49.484;11.112;2023-04-01T16:24:08;10.90;99.90
2721;DHT22;1368;49.484;11.112;2023-04-01T16:26:50;10.70;99.90
2721;DHT22;1368;49.484;11.112;2023-04-01T16:32:20;10.90;99.90
2721;DHT22;1368;49.484;11.112;2023-04-01T16:35:18;11.00;99.90
2721;DHT22;1368;49.484;11.112;2023-04-01T16:38:09;11.20;99.90
2721;DHT22;1368;49.484;11.112;2023-04-01T16:40:44;11.10;99.90
2721;DHT22;1368;49.484;11.112;2023-04-01T16:43:35;10.80;99.90
2721;DHT22;1368;49.484;11.112;2023-04-01T16:46:26;10.80;99.90
2721;DHT22;1368;49.484;11.112;2023-04-01T16:49:03;11.10;99.90
2721;DHT22;1368;49.484;11.112;2023-04-01T16:54:56;11.10;99.90
2721;DHT22;1368;49.484;11.112;2023-04-01T17:00:29;11.00;99.90
2721;DHT22;1368;49.484;11.112;2023-04-01T17:08:14;10.60;99.90
2721;DHT22;1368;49.484;11.112;2023-04-01T17:11:07;10.10;99.90
2721;DHT22;1368;49.484;11.112;2023-04-01T17:13:40;10.70;99.90
2721;DHT22;1368;49.484;11.112;2023-04-01T17:16:28;10.70;99.90
2721;DHT22;1368;49.484;11.112;2023-04-01T17:21:57;10.60;99.90
2721;DHT22;1368;49.484;11.112;2023-04-01T17:32:59;10.40;99.90
2721;DHT22;1368;49.484;11.112;2023-04-01T17:38:23;10.50;99.90
2721;DHT22;1368;49.484;11.112;2023-04-01T17:47:16;10.60;99.90
2721;DHT22;1368;49.484;11.112;2023-04-01T17:49:59;10.70;99.90
2721;DHT22;1368;49.484;11.112;2023-04-01T18:08:58;10.80;99.90
2721;DHT22;1368;49.484;11.112;2023-04-01T18:22:29;11.00;99.90
2721;DHT22;1368;49.484;11.112;2023-04-01T18:27:48;10.90;99.90
2721;DHT22;1368;49.484;11.112;2023-04-01T18:30:32;11.00;99.90
2721;DHT22;1368;49.484;11.112;2023-04-01T18:35:52;11.00;99.90
2721;DHT22;1368;49.484;11.112;2023-04-01T18:38:34;10.90;99.90
2721;DHT22;1368;49.484;11.112;2023-04-01T18:43:39;10.60;99.90
2721;DHT22;1368;49.484;11.112;2023-04-01T18:46:38;10.60;99.90
2721;DHT22;1368;49.484;11.112;2023-04-01T18:52:24;10.80;99.90
2721;DHT22;1368;49.484;11.112;2023-04-01T18:57:38;11.00;99.90
2721;DHT22;1368;49.484;11.112;2023-04-01T19:00:32;11.00;99.90
2721;DHT22;1368;49.484;11.112;2023-04-01T19:03:06;11.10;99.90
2721;DHT22;1368;49.484;11.112;2023-04-01T19:05:40;11.10;99.90
2721;DHT22;1368;49.484;11.112;2023-04-01T19:11:09;11.50;99.90
2721;DHT22;1368;49.484;11.112;2023-04-01T19:14:13;11.40;99.90
2721;DHT22;1368;49.484;11.112;2023-04-01T19:17:02;11.40;99.90
2721;DHT22;1368;49.484;11.112;2023-04-01T19:20:07;11.40;99.90
2721;DHT22;1368;49.484;11.112;2023-04-01T19:25:23;11.30;99.90
2721;DHT22;1368;49.484;11.112;2023-04-01T19:27:53;11.20;99.90
2721;DHT22;1368;49.484;11.112;2023-04-01T19:38:30;11.40;99.90
2721;DHT22;1368;49.484;11.112;2023-04-01T19:44:02;11.40;99.90
2721;DHT22;1368;49.484;11.112;2023-04-01T19:46:55;11.40;99.90
2721;DHT22;1368;49.484;11.112;2023-04-01T19:57:58;11.00;99.90
2721;DHT22;1368;49.484;11.112;2023-04-01T20:00:41;11.10;99.90
2721;DHT22;1368;49.484;11.112;2023-04-01T20:08:51;11.10;99.90
2721;DHT22;1368;49.484;11.112;2023-04-01T20:14:04;10.90;99.90
2721;DHT22;1368;49.484;11.112;2023-04-01T20:19:42;10.90;99.90
2721;DHT22;1368;49.484;11.112;2023-04-01T20:22:31;10.90;99.90
2721;DHT22;1368;49.484;11.112;2023-04-01T20:27:39;11.00;99.90
2721;DHT22;1368;49.484;11.112;2023-04-01T20:30:33;11.00;99.90
2721;DHT22;1368;49.484;11.112;2023-04-01T20:33:09;11.10;99.90
2721;DHT22;1368;49.484;11.112;2023-04-01T20:44:02;11.30;99.90
2721;DHT22;1368;49.484;11.112;2023-04-01T20:46:54;11.30;99.90
2721;DHT22;1368;49.484;11.112;2023-04-01T20:50:23;11.20;99.90
2721;DHT22;1368;49.484;11.112;2023-04-01T20:52:22;11.10;99.90
2721;DHT22;1368;49.484;11.112;2023-04-01T21:14:12;11.40;99.90
2721;DHT22;1368;49.484;11.112;2023-04-01T21:19:51;11.40;99.90
2721;DHT22;1368;49.484;11.112;2023-04-01T21:22:39;11.40;99.90
2721;DHT22;1368;49.484;11.112;2023-04-01T21:25:21;11.60;99.90
2721;DHT22;1368;49.484;11.112;2023-04-01T21:36:20;11.70;99.90
2721;DHT22;1368;49.484;11.112;2023-04-01T21:44:01;11.40;99.90
2721;DHT22;1368;49.484;11.112;2023-04-01T21:46:44;11.40;99.90
2721;DHT22;1368;49.484;11.112;2023-04-01T21:58:03;11.50;99.90
2721;DHT22;1368;49.484;11.112;2023-04-01T22:04:10;11.20;99.90
2721;DHT22;1368;49.484;11.112;2023-04-01T22:06:49;11.40;99.90
2721;DHT22;1368;49.484;11.112;2023-04-01T22:14:38;11.10;99.90
2721;DHT22;1368;49.484;11.112;2023-04-01T22:17:19;10.90;99.90
2721;DHT22;1368;49.484;11.112;2023-04-01T22:25:12;10.90;99.90
2721;DHT22;1368;49.484;11.112;2023-04-01T22:27:47;11.10;99.90
2721;DHT22;1368;49.484;11.112;2023-04-01T22:35:23;10.70;99.90
2721;DHT22;1368;49.484;11.112;2023-04-01T22:38:18;10.30;99.90
2721;DHT22;1368;49.484;11.112;2023-04-01T22:43:38;10.60;99.90
2721;DHT22;1368;49.484;11.112;2023-04-01T22:46:08;10.60;99.90
2721;DHT22;1368;49.484;11.112;2023-04-01T22:49:27;10.50;99.90
2721;DHT22;1368;49.484;11.112;2023-04-01T22:54:49;10.70;99.90
2721;DHT22;1368;49.484;11.112;2023-04-01T23:05:30;11.20;99.90
2721;DHT22;1368;49.484;11.112;2023-04-01T23:08:03;11.10;99.90
2721;DHT22;1368;49.484;11.112;2023-04-01T23:10:52;11.00;99.90
2721;DHT22;1368;49.484;11.112;2023-04-01T23:13:24;10.60;99.90
2721;DHT22;1368;49.484;11.112;2023-04-01T23:15:53;10.60;99.90
2721;DHT22;1368;49.484;11.112;2023-04-01T23:21:18;10.70;99.90
2721;DHT22;1368;49.484;11.112;2023-04-01T23:29:35;11.10;99.90
2721;DHT22;1368;49.484;11.112;2023-04-01T23:32:02;11.20;99.90
2721;DHT22;1368;49.484;11.112;2023-04-01T23:34:31;11.00;99.90
2721;DHT22;1368;49.484;11.112;2023-04-01T23:39:39;11.00;99.90
2721;DHT22;1368;49.484;11.112;2023-04-01T23:42:15;11.20;99.90
2721;DHT22;1368;49.484;11.112;2023-04-01T23:44:45;11.30;99.90
2721;DHT22;1368;49.484;11.112;2023-04-01T23:47:30;11.10;99.90
2721;DHT22;1368;49.484;11.112;2023-04-01T23:50:04;11.10;99.90
2721;DHT22;1368;49.484;11.112;2023-04-01T23:52:39;10.90;99.90
2721;DHT22;1368;49.484;11.112;2023-04-01T23:55:19;11.00;99.90
